Time;durP1;ratioP1;P1;durP2;ratioP2;P2;SDS_P1;SDS_P2;PMS_P1;PMS_P2;Temp;Humidity;BMP_temperature;BMP_pressure;BME280_temperature;BME280_humidity;BME280_pressure;Samples;Min_cycle;Max_cycle;Signal;HPM_P1;HPM_P2
2023/03/26 00:01:26;;;;;;;1.02;0.50;;;;;;;8.38;69.31;99422.81;4421728;32;34403;-76
2023/03/26 00:03:56;;;;;;;1.35;0.60;;;;;;;8.26;69.37;99428.22;4408707;32;34185;-76
2023/03/26 00:06:27;;;;;;;1.75;0.50;;;;;;;8.35;69.21;99419.19;4423299;32;34333;-76
2023/03/26 00:08:57;;;;;;;1.37;0.50;;;;;;;8.22;69.65;99415.13;4431930;32;33022;-77
2023/03/26 00:11:27;;;;;;;1.50;0.50;;;;;;;8.22;69.72;99416.00;4407594;32;33405;-76
2023/03/26 00:13:58;;;;;;;1.37;0.50;;;;;;;8.44;69.04;99412.78;4405644;32;33392;-76
2023/03/26 00:16:29;;;;;;;1.02;0.50;;;;;;;8.32;69.32;99417.31;4413484;32;34257;-76
2023/03/26 00:18:58;;;;;;;1.65;0.50;;;;;;;8.07;70.08;99423.91;4423476;32;33039;-76
2023/03/26 00:21:29;;;;;;;1.77;0.60;;;;;;;8.24;69.28;99418.66;4410915;32;32570;-76
2023/03/26 00:23:58;;;;;;;1.45;0.50;;;;;;;8.00;70.36;99421.84;4422613;32;33447;-76
2023/03/26 00:26:28;;;;;;;1.40;0.60;;;;;;;7.77;71.55;99424.97;4417403;32;32895;-78
2023/03/26 00:28:57;;;;;;;1.50;0.60;;;;;;;8.03;70.36;99424.53;4442009;32;33272;-76
2023/03/26 00:31:25;;;;;;;1.05;0.50;;;;;;;8.26;69.94;99417.91;4418440;32;33800;-77
2023/03/26 00:33:54;;;;;;;1.20;0.50;;;;;;;8.60;68.09;99418.66;4424201;32;33504;-77
2023/03/26 00:36:24;;;;;;;1.83;0.70;;;;;;;8.52;68.42;99410.56;4394882;32;33878;-76
2023/03/26 00:38:53;;;;;;;2.10;0.55;;;;;;;8.12;69.92;99413.81;4388710;32;34105;-76
2023/03/26 00:41:24;;;;;;;1.23;0.60;;;;;;;8.01;70.36;99410.69;4416069;32;98094;-76
2023/03/26 00:43:55;;;;;;;1.33;0.50;;;;;;;7.82;70.96;99413.19;4404779;32;33939;-76
2023/03/26 00:46:24;;;;;;;1.67;0.50;;;;;;;7.90;70.46;99411.88;4418637;32;34361;-77
2023/03/26 00:48:52;;;;;;;1.63;0.60;;;;;;;7.91;70.55;99405.91;4403202;32;33120;-75
2023/03/26 00:51:20;;;;;;;1.37;0.50;;;;;;;8.02;70.54;99406.44;4421107;32;34481;-75
2023/03/26 00:53:49;;;;;;;0.95;0.52;;;;;;;8.03;70.46;99393.59;4381733;32;33748;-77
2023/03/26 00:56:17;;;;;;;2.83;0.60;;;;;;;7.81;71.26;99395.97;4388010;32;33678;-76
2023/03/26 00:58:46;;;;;;;2.00;0.50;;;;;;;7.84;71.12;99401.25;4420212;32;33289;-76
2023/03/26 01:01:17;;;;;;;1.00;0.50;;;;;;;7.91;71.27;99397.28;4428172;32;33865;-77
2023/03/26 01:03:46;;;;;;;0.68;0.40;;;;;;;7.92;71.38;99394.78;4386680;32;32731;-76
2023/03/26 01:06:36;;;;;;;1.15;0.50;;;;;;;8.51;69.62;99392.41;4379308;32;33559;-76
2023/03/26 01:09:12;;;;;;;1.20;0.60;;;;;;;8.50;70.24;99399.28;4370773;32;32898;-78
2023/03/26 01:11:40;;;;;;;1.48;0.60;;;;;;;7.87;71.54;99396.25;4369407;32;32974;-75
2023/03/26 01:14:11;;;;;;;1.07;0.50;;;;;;;7.84;71.77;99408.97;4415945;32;34326;-77
2023/03/26 01:17:00;;;;;;;1.17;0.43;;;;;;;8.23;71.18;99401.44;4388001;32;33040;-76
2023/03/26 01:19:43;;;;;;;1.80;0.50;;;;;;;8.77;68.97;99407.41;4401373;32;32373;-76
2023/03/26 01:22:19;;;;;;;1.80;0.50;;;;;;;8.40;70.48;99408.28;4391494;32;31838;-75
2023/03/26 01:24:52;;;;;;;1.60;0.50;;;;;;;8.74;69.24;99412.44;4400014;32;33211;-76
2023/03/26 01:27:41;;;;;;;1.48;0.57;;;;;;;8.03;70.89;99408.19;4392148;32;33302;-75
2023/03/26 01:30:21;;;;;;;1.73;0.50;;;;;;;8.41;69.38;99402.31;4406088;32;32552;-76
2023/03/26 01:33:05;;;;;;;1.95;0.50;;;;;;;8.26;70.36;99406.72;4384989;32;33119;-76
2023/03/26 01:35:44;;;;;;;2.10;0.70;;;;;;;7.73;71.49;99417.91;4389233;32;33083;-76
2023/03/26 01:38:45;;;;;;;1.70;0.70;;;;;;;7.48;72.86;99416.66;4373324;32;32267;-77
2023/03/26 01:41:39;;;;;;;1.77;0.68;;;;;;;7.32;73.44;99421.81;4377995;32;30968;-76
2023/03/26 01:44:28;;;;;;;1.92;0.60;;;;;;;7.77;72.01;99412.09;4390603;32;33733;-76
2023/03/26 01:46:58;;;;;;;1.30;0.60;;;;;;;7.37;72.92;99417.81;4384864;32;32780;-77
2023/03/26 01:49:27;;;;;;;1.58;0.68;;;;;;;7.60;72.20;99412.13;4387085;32;34417;-76
2023/03/26 01:51:56;;;;;;;1.08;0.60;;;;;;;7.51;72.08;99410.78;4389181;32;34176;-76
2023/03/26 01:54:27;;;;;;;0.90;0.50;;;;;;;7.51;71.84;99409.06;4390368;32;33520;-77
2023/03/26 01:57:17;;;;;;;1.20;0.60;;;;;;;7.47;71.86;99412.31;4377881;32;32747;-77
2023/03/26 01:59:57;;;;;;;3.05;0.60;;;;;;;7.46;72.15;99413.13;4393556;32;33295;-76
2023/03/26 02:02:41;;;;;;;2.58;0.80;;;;;;;7.45;71.92;99422.53;4398488;32;33718;-76
2023/03/26 02:05:18;;;;;;;1.63;0.73;;;;;;;7.51;71.48;99416.81;4398505;32;32507;-77
2023/03/26 02:08:19;;;;;;;2.50;0.68;;;;;;;7.55;71.39;99423.91;4374313;32;32676;-76
2023/03/26 02:10:51;;;;;;;1.57;0.60;;;;;;;7.64;71.01;99424.34;4379188;32;33694;-76
2023/03/26 02:13:20;;;;;;;2.15;0.75;;;;;;;7.95;69.60;99423.28;4379322;32;32553;-76
2023/03/26 02:15:59;;;;;;;1.60;0.70;;;;;;;7.67;70.24;99429.66;4382256;32;33360;-77
2023/03/26 02:18:37;;;;;;;3.03;0.70;;;;;;;8.19;69.04;99423.63;4400481;32;33092;-77
2023/03/26 02:21:11;;;;;;;2.12;0.60;;;;;;;9.35;64.28;99428.87;4401288;32;32962;-76
2023/03/26 02:23:45;;;;;;;2.20;0.60;;;;;;;9.78;62.67;99425.56;4387079;32;34355;-77
2023/03/26 02:26:15;;;;;;;1.92;0.60;;;;;;;9.56;63.24;99431.50;4387121;32;34424;-76
2023/03/26 02:28:45;;;;;;;2.03;0.55;;;;;;;9.95;62.18;99429.75;4393422;32;32175;-77
2023/03/26 02:31:15;;;;;;;1.77;0.50;;;;;;;9.73;62.24;99420.19;4391343;32;35209;-78
2023/03/26 02:33:46;;;;;;;1.77;0.60;;;;;;;9.96;61.83;99420.25;4397460;32;33587;-77
2023/03/26 02:36:17;;;;;;;1.83;0.70;;;;;;;9.78;61.74;99410.06;4399740;32;32666;-76
2023/03/26 02:38:45;;;;;;;1.95;0.60;;;;;;;9.68;62.16;99407.88;4384607;32;33349;-76
2023/03/26 02:41:13;;;;;;;2.33;0.55;;;;;;;9.86;61.43;99403.47;4384172;32;34226;-77
2023/03/26 02:43:49;;;;;;;1.42;0.68;;;;;;;9.70;61.85;99406.28;4379344;32;32883;-77
2023/03/26 02:46:19;;;;;;;1.50;0.70;;;;;;;9.67;61.99;99406.13;4369433;32;33538;-76
2023/03/26 02:48:48;;;;;;;2.45;0.60;;;;;;;9.49;62.38;99408.81;4396651;32;33602;-76
2023/03/26 02:51:17;;;;;;;1.83;0.70;;;;;;;9.39;62.93;99399.78;4370752;32;34022;-76
2023/03/26 02:53:46;;;;;;;2.60;0.70;;;;;;;9.19;63.04;99389.47;4377660;32;33103;-77
2023/03/26 02:56:15;;;;;;;1.98;0.70;;;;;;;9.24;62.95;99395.72;4359837;32;34416;-76
2023/03/26 02:58:43;;;;;;;1.92;0.60;;;;;;;8.81;64.52;99390.38;4362853;32;33684;-76
2023/03/26 03:01:12;;;;;;;1.45;0.60;;;;;;;8.72;65.00;99390.81;4377216;32;33644;-76
2023/03/26 03:03:40;;;;;;;2.10;0.75;;;;;;;8.37;65.77;99399.50;4377960;32;33846;-77
2023/03/26 03:06:16;;;;;;;3.15;0.77;;;;;;;8.76;64.81;99400.47;4380623;32;34091;-77
2023/03/26 03:08:47;;;;;;;2.73;0.80;;;;;;;8.79;64.55;99399.75;4373583;32;33445;-76
2023/03/26 03:11:22;;;;;;;3.10;0.80;;;;;;;8.91;63.90;99389.09;4369479;32;34122;-77
2023/03/26 03:13:50;;;;;;;1.50;0.63;;;;;;;8.88;63.83;99386.34;4375382;32;33202;-76
2023/03/26 03:16:18;;;;;;;2.72;0.70;;;;;;;9.03;63.42;99389.63;4370456;32;34347;-76
2023/03/26 03:18:53;;;;;;;2.67;0.87;;;;;;;8.55;65.15;99389.16;4381474;32;33669;-76
2023/03/26 03:21:23;;;;;;;1.85;0.70;;;;;;;9.31;63.02;99391.72;4376984;32;34044;-76
2023/03/26 03:23:50;;;;;;;2.20;0.80;;;;;;;9.29;62.13;99397.63;4371086;32;32732;-77
2023/03/26 03:26:20;;;;;;;2.08;0.60;;;;;;;9.39;61.84;99392.03;4376951;32;33555;-76
2023/03/26 03:28:50;;;;;;;1.00;0.50;;;;;;;9.83;60.77;99393.00;4361106;32;32895;-76
2023/03/26 03:31:17;;;;;;;1.75;0.60;;;;;;;9.47;61.64;99395.81;4374990;32;34080;-77
2023/03/26 03:33:45;;;;;;;1.98;0.80;;;;;;;9.32;61.88;99397.75;4382666;32;33996;-76
2023/03/26 03:36:16;;;;;;;3.22;0.60;;;;;;;9.37;62.20;99391.09;4377249;32;33094;-77
2023/03/26 03:38:50;;;;;;;2.42;0.80;;;;;;;9.62;60.66;99383.56;4389420;32;32782;-76
2023/03/26 03:41:18;;;;;;;2.07;0.70;;;;;;;9.43;61.46;99381.88;4378172;32;34030;-77
2023/03/26 03:43:46;;;;;;;2.62;1.02;;;;;;;9.52;59.72;99390.84;4452555;32;33463;-77
2023/03/26 03:46:14;;;;;;;2.20;0.80;;;;;;;9.15;61.57;99405.63;4451893;32;34023;-77
2023/03/26 03:48:47;;;;;;;2.20;0.80;;;;;;;9.14;61.64;99409.06;4407062;32;33843;-77
2023/03/26 03:51:17;;;;;;;1.90;0.68;;;;;;;9.24;61.16;99416.38;4443013;32;34302;-77
2023/03/26 03:53:46;;;;;;;1.85;0.70;;;;;;;8.63;63.21;99400.72;4452478;32;32770;-77
2023/03/26 03:56:16;;;;;;;2.05;0.70;;;;;;;8.89;62.96;99403.62;4449541;32;33563;-76
2023/03/26 03:58:46;;;;;;;1.90;0.90;;;;;;;9.39;61.37;99405.84;4434914;32;32135;-76
2023/03/26 04:01:15;;;;;;;2.30;0.82;;;;;;;8.19;64.73;99413.28;4453894;32;33500;-77
2023/03/26 04:03:44;;;;;;;1.60;0.60;;;;;;;8.34;64.81;99415.69;4452176;32;32800;-77
2023/03/26 04:06:17;;;;;;;2.70;0.70;;;;;;;8.30;65.21;99416.38;4450590;32;34091;-76
2023/03/26 04:08:52;;;;;;;2.03;0.80;;;;;;;8.44;64.58;99417.94;4439414;32;33273;-76
2023/03/26 04:11:20;;;;;;;2.20;0.85;;;;;;;8.53;64.10;99421.78;4456942;32;34433;-76
2023/03/26 04:13:50;;;;;;;3.17;0.80;;;;;;;8.65;64.38;99417.16;4452473;32;33385;-76
2023/03/26 04:16:18;;;;;;;2.20;0.80;;;;;;;8.67;64.14;99420.69;4439510;32;33663;-77
2023/03/26 04:18:47;;;;;;;4.12;0.82;;;;;;;8.33;65.12;99413.94;4453622;32;34414;-76
2023/03/26 04:21:15;;;;;;;4.07;1.15;;;;;;;7.95;66.19;99419.84;4455455;32;34504;-76
2023/03/26 04:23:44;;;;;;;3.70;1.10;;;;;;;6.18;73.40;99426.03;4455667;32;33181;-76
2023/03/26 04:26:15;;;;;;;3.05;1.20;;;;;;;6.28;73.47;99415.47;4426366;32;33414;-77
2023/03/26 04:28:48;;;;;;;2.92;1.20;;;;;;;5.78;75.68;99418.62;4439101;32;33780;-76
2023/03/26 04:31:17;;;;;;;3.45;1.20;;;;;;;5.74;75.94;99426.91;4442903;32;33547;-76
2023/03/26 04:33:46;;;;;;;2.90;1.40;;;;;;;5.27;77.81;99431.97;4424845;32;31942;-75
2023/03/26 04:36:15;;;;;;;2.90;1.35;;;;;;;5.03;79.79;99431.34;4433203;32;33252;-76
2023/03/26 04:38:45;;;;;;;5.80;2.00;;;;;;;5.11;80.38;99430.13;4438249;32;34572;-76
2023/03/26 04:41:13;;;;;;;5.57;2.17;;;;;;;5.25;79.50;99430.97;4443367;32;34359;-76
2023/03/26 04:43:46;;;;;;;5.53;1.98;;;;;;;5.81;76.91;99427.34;4410319;32;33653;-76
2023/03/26 04:46:17;;;;;;;7.32;2.72;;;;;;;5.81;77.51;99435.06;4390298;32;34238;-78
2023/03/26 04:48:50;;;;;;;7.90;3.92;;;;;;;5.50;78.18;99429.84;4458008;32;33429;-76
2023/03/26 04:51:20;;;;;;;9.50;5.03;;;;;;;5.20;79.45;99429.81;4436686;32;33705;-77
2023/03/26 04:53:56;;;;;;;10.60;3.45;;;;;;;5.37;78.66;99432.47;4390519;32;33938;-76
2023/03/26 04:56:33;;;;;;;5.90;2.57;;;;;;;5.45;78.99;99441.53;4452234;32;33613;-77
2023/03/26 04:59:02;;;;;;;7.72;3.50;;;;;;;5.57;78.41;99442.25;4432555;32;33807;-76
2023/03/26 05:01:31;;;;;;;5.50;2.30;;;;;;;6.08;76.38;99437.47;4445103;32;34010;-76
2023/03/26 05:03:59;;;;;;;5.10;2.12;;;;;;;7.00;72.88;99431.34;4417847;32;33846;-76
2023/03/26 05:06:29;;;;;;;4.53;2.47;;;;;;;6.56;73.84;99432.41;4419053;32;33779;-76
2023/03/26 05:08:57;;;;;;;5.63;2.20;;;;;;;6.69;74.21;99427.13;4441414;32;33807;-76
2023/03/26 05:11:27;;;;;;;4.97;2.60;;;;;;;6.63;74.87;99429.37;4441549;32;33737;-76
2023/03/26 05:13:56;;;;;;;6.18;2.40;;;;;;;7.28;72.61;99433.66;4392656;32;34176;-77
2023/03/26 05:16:24;;;;;;;5.93;2.37;;;;;;;7.40;72.50;99430.84;4423318;32;33172;-76
2023/03/26 05:18:52;;;;;;;5.07;2.30;;;;;;;8.21;68.64;99428.84;4417574;32;33221;-77
2023/03/26 05:21:21;;;;;;;4.30;1.85;;;;;;;7.59;71.11;99438.72;4419145;32;34539;-76
2023/03/26 05:23:49;;;;;;;4.45;1.20;;;;;;;7.20;73.28;99435.84;4437220;32;33646;-76
2023/03/26 05:26:17;;;;;;;5.37;1.60;;;;;;;6.28;75.92;99441.19;4385520;32;34304;-76
2023/03/26 05:28:45;;;;;;;4.40;1.83;;;;;;;6.46;76.03;99434.47;4433783;32;33729;-76
2023/03/26 05:31:15;;;;;;;5.72;2.40;;;;;;;6.52;76.74;99435.63;4395175;32;34742;-76
2023/03/26 05:33:46;;;;;;;7.15;2.83;;;;;;;6.67;75.51;99431.31;4393529;32;32782;-76
2023/03/26 05:36:16;;;;;;;5.97;2.90;;;;;;;6.58;76.47;99426.53;4383565;32;33209;-76
2023/03/26 05:38:48;;;;;;;10.52;4.50;;;;;;;6.60;76.93;99419.78;4385122;32;33637;-77
2023/03/26 05:41:17;;;;;;;51.83;19.40;;;;;;;6.73;76.24;99430.75;4383072;32;34064;-76
2023/03/26 05:43:46;;;;;;;67.32;28.23;;;;;;;6.97;75.31;99423.44;4378456;32;34927;-77
2023/03/26 05:46:14;;;;;;;83.45;37.20;;;;;;;7.04;74.81;99417.81;4393043;32;32424;-76
2023/03/26 05:48:42;;;;;;;46.88;22.83;;;;;;;7.16;74.18;99427.88;4451108;32;34333;-76
2023/03/26 05:51:11;;;;;;;19.67;12.20;;;;;;;7.37;73.13;99429.00;4449124;32;33793;-76
2023/03/26 05:53:40;;;;;;;13.60;7.97;;;;;;;7.59;71.99;99415.53;4399688;32;34952;-76
2023/03/26 05:56:10;;;;;;;27.10;14.10;;;;;;;7.76;72.10;99423.19;4450657;32;32187;-76
2023/03/26 05:58:44;;;;;;;19.80;11.07;;;;;;;7.87;71.49;99419.47;4451328;32;33179;-76
2023/03/26 06:01:19;;;;;;;26.85;11.68;;;;;;;7.89;71.76;99423.00;4450172;32;33562;-76
2023/03/26 06:03:51;;;;;;;21.83;10.85;;;;;;;7.56;73.26;99425.66;4450615;32;33369;-76
2023/03/26 06:06:19;;;;;;;17.33;10.73;;;;;;;7.89;72.28;99425.56;4406419;32;33713;-76
2023/03/26 06:08:49;;;;;;;19.23;10.88;;;;;;;8.46;69.15;99416.31;4450002;32;33408;-76
2023/03/26 06:11:30;;;;;;;11.63;5.40;;;;;;;8.73;68.54;99410.69;4449056;32;33569;-76
2023/03/26 06:13:59;;;;;;;8.75;3.47;;;;;;;8.84;66.99;99417.19;4451052;32;33997;-76
2023/03/26 06:16:27;;;;;;;7.70;2.83;;;;;;;8.88;66.01;99409.59;4405852;32;33598;-77
2023/03/26 06:18:55;;;;;;;7.53;3.05;;;;;;;8.88;66.06;99412.19;4451134;32;33757;-77
2023/03/26 06:21:26;;;;;;;7.93;2.90;;;;;;;8.96;66.04;99408.22;4450990;32;34566;-76
2023/03/26 06:23:54;;;;;;;5.97;2.80;;;;;;;9.27;65.19;99409.59;4450709;32;33375;-77
2023/03/26 06:26:25;;;;;;;5.95;2.12;;;;;;;10.31;62.31;99413.94;4395969;32;33352;-76
2023/03/26 06:28:53;;;;;;;5.50;2.30;;;;;;;10.86;60.33;99411.72;4425528;32;34581;-76
2023/03/26 06:31:20;;;;;;;4.85;1.80;;;;;;;10.76;60.72;99413.97;4443596;32;34713;-76
2023/03/26 06:33:48;;;;;;;5.18;1.70;;;;;;;10.40;62.62;99416.91;4449331;32;33543;-76
2023/03/26 06:36:16;;;;;;;4.10;1.40;;;;;;;10.20;62.36;99415.22;4447026;32;33726;-76
2023/03/26 06:38:47;;;;;;;4.55;1.40;;;;;;;11.21;59.50;99413.87;4450086;32;34165;-77
2023/03/26 06:41:15;;;;;;;3.40;1.30;;;;;;;10.92;60.70;99424.91;4450227;32;33998;-76
2023/03/26 06:43:43;;;;;;;3.30;1.05;;;;;;;10.03;61.45;99417.13;4403583;32;33493;-76
2023/03/26 06:46:12;;;;;;;4.55;1.20;;;;;;;11.30;58.77;99408.16;4390572;32;34290;-76
2023/03/26 06:48:42;;;;;;;3.80;1.10;;;;;;;10.82;59.17;99409.00;4390087;32;31886;-76
2023/03/26 06:51:11;;;;;;;5.53;1.17;;;;;;;11.59;57.19;99411.75;4391524;32;33471;-76
2023/03/26 06:53:40;;;;;;;4.03;1.10;;;;;;;10.30;60.01;99412.19;4386035;32;33540;-76
2023/03/26 06:56:08;;;;;;;4.03;1.30;;;;;;;10.98;59.84;99414.75;4379512;32;33893;-76
2023/03/26 06:58:36;;;;;;;5.07;1.15;;;;;;;11.26;58.73;99419.25;4388734;32;33722;-77
2023/03/26 07:01:16;;;;;;;2.92;0.90;;;;;;;10.70;58.69;99424.09;4380601;32;32180;-77
2023/03/26 07:03:57;;;;;;;5.40;1.12;;;;;;;10.76;59.56;99429.50;4389829;32;31961;-77
2023/03/26 07:06:52;;;;;;;5.53;1.30;;;;;;;11.05;60.23;99427.13;4385095;32;33199;-77
2023/03/26 07:09:31;;;;;;;3.12;0.85;;;;;;;10.87;58.69;99426.44;4385019;32;33289;-77
2023/03/26 07:12:00;;;;;;;4.10;0.93;;;;;;;10.97;57.98;99418.16;4390306;32;33250;-76
2023/03/26 07:14:31;;;;;;;3.22;0.80;;;;;;;10.84;57.57;99415.97;4387749;32;32484;-80
2023/03/26 07:17:00;;;;;;;4.15;1.30;;;;;;;11.07;57.40;99429.75;4423769;32;33473;-78
2023/03/26 07:19:27;;;;;;;6.53;1.20;;;;;;;11.16;57.37;99420.63;4392820;32;34340;-78
2023/03/26 07:21:55;;;;;;;3.53;1.20;;;;;;;11.07;57.04;99425.47;4392135;32;32614;-76
2023/03/26 07:24:25;;;;;;;5.18;1.30;;;;;;;10.94;58.14;99418.06;4404049;32;32374;-76
2023/03/26 07:26:56;;;;;;;3.50;1.10;;;;;;;10.99;57.89;99420.00;4381934;32;31974;-78
2023/03/26 07:29:37;;;;;;;4.43;1.20;;;;;;;11.33;58.54;99428.13;4388514;32;34257;-77
2023/03/26 07:32:24;;;;;;;2.80;0.98;;;;;;;11.39;57.66;99423.16;4386335;32;34108;-78
2023/03/26 07:35:11;;;;;;;4.80;1.20;;;;;;;11.39;56.70;99417.97;4410729;32;34033;-76
2023/03/26 07:37:54;;;;;;;3.37;1.30;;;;;;;11.73;57.87;99420.00;4391775;32;34541;-77
2023/03/26 07:40:49;;;;;;;3.85;1.40;;;;;;;11.85;57.17;99429.91;4381707;32;32793;-77
2023/03/26 07:43:38;;;;;;;3.03;1.02;;;;;;;12.06;59.33;99419.41;4390540;32;33366;-77
2023/03/26 07:46:10;;;;;;;3.10;1.20;;;;;;;12.35;57.88;99416.84;4376668;32;33281;-76
2023/03/26 07:48:58;;;;;;;2.85;1.02;;;;;;;11.91;58.40;99419.78;4358675;32;32591;-78
2023/03/26 07:51:27;;;;;;;4.32;1.10;;;;;;;11.87;59.18;99423.06;4372533;32;33539;-77
2023/03/26 07:53:55;;;;;;;4.15;1.25;;;;;;;12.29;58.10;99417.53;4388386;32;34025;-79
2023/03/26 07:56:50;;;;;;;5.28;1.08;;;;;;;12.23;58.62;99417.34;4377341;32;33598;-78
2023/03/26 07:59:29;;;;;;;4.80;1.20;;;;;;;12.34;57.50;99418.59;4375439;32;33002;-77
2023/03/26 08:02:12;;;;;;;3.30;1.20;;;;;;;12.47;57.92;99419.81;4390100;32;32877;-76
2023/03/26 08:04:54;;;;;;;5.20;1.43;;;;;;;12.69;58.59;99412.69;4379223;32;32710;-77
2023/03/26 08:07:38;;;;;;;4.37;1.30;;;;;;;12.50;57.61;99421.66;4375061;32;30950;-77
2023/03/26 08:10:16;;;;;;;4.07;1.08;;;;;;;12.62;57.62;99424.63;4386125;32;33812;-76
2023/03/26 08:12:59;;;;;;;4.57;1.30;;;;;;;12.64;56.64;99414.28;4386589;32;33485;-79
2023/03/26 08:15:36;;;;;;;4.20;1.20;;;;;;;12.67;56.68;99410.06;4384528;32;33104;-76
2023/03/26 08:18:26;;;;;;;3.78;1.20;;;;;;;13.22;56.21;99418.56;4388701;32;31155;-77
2023/03/26 08:21:24;;;;;;;3.00;0.90;;;;;;;12.87;54.57;99408.03;4413793;32;32655;-78
2023/03/26 08:24:03;;;;;;;2.37;1.00;;;;;;;13.06;53.72;99398.19;4395033;32;31648;-80
2023/03/26 08:26:40;;;;;;;2.55;0.80;;;;;;;12.73;54.19;99405.03;4379097;32;33995;-79
2023/03/26 08:29:20;;;;;;;3.25;0.90;;;;;;;12.77;53.50;99409.50;4385566;32;33303;-75
2023/03/26 08:31:49;;;;;;;3.30;1.10;;;;;;;12.67;51.99;99399.66;4385444;32;33612;-77
2023/03/26 08:34:17;;;;;;;2.67;1.00;;;;;;;13.08;51.93;99406.91;4400322;32;33018;-75
2023/03/26 08:36:44;;;;;;;3.60;0.90;;;;;;;13.14;50.83;99402.75;4390462;32;34772;-77
2023/03/26 08:39:13;;;;;;;3.78;0.90;;;;;;;12.83;51.31;99403.59;4397229;32;34076;-76
2023/03/26 08:42:05;;;;;;;4.25;1.00;;;;;;;12.86;50.07;99395.00;4405745;32;32337;-78
2023/03/26 08:44:48;;;;;;;3.50;1.10;;;;;;;12.99;50.76;99394.50;4386543;32;33360;-78
2023/03/26 08:47:34;;;;;;;3.80;1.20;;;;;;;13.22;50.36;99392.56;4388464;32;32822;-77
2023/03/26 08:50:39;;;;;;;4.05;1.35;;;;;;;13.45;50.30;99388.00;4395619;32;33352;-76
2023/03/26 08:53:31;;;;;;;4.55;1.23;;;;;;;13.06;49.05;99387.78;4391622;32;33041;-75
2023/03/26 08:56:21;;;;;;;3.90;1.00;;;;;;;13.34;48.02;99386.84;4391749;32;32358;-77
2023/03/26 08:58:52;;;;;;;3.70;1.30;;;;;;;13.63;47.46;99382.41;4386486;32;33646;-76
2023/03/26 09:01:57;;;;;;;3.53;1.00;;;;;;;13.49;47.95;99383.78;4393080;32;33163;-76
2023/03/26 09:04:56;;;;;;;3.30;0.80;;;;;;;13.37;49.87;99384.34;4392423;32;33607;-75
2023/03/26 09:07:27;;;;;;;3.93;1.30;;;;;;;13.15;50.38;99382.81;4395171;32;32874;-76
2023/03/26 09:10:07;;;;;;;5.35;0.88;;;;;;;13.36;51.21;99379.94;4393514;32;33674;-77
2023/03/26 09:12:58;;;;;;;3.34;0.97;;;;;;;13.54;49.48;99375.25;4387831;32;32620;-77
2023/03/26 09:16:00;;;;;;;3.80;1.00;;;;;;;13.52;49.08;99369.13;4392840;32;33307;-76
2023/03/26 09:18:30;;;;;;;3.40;0.80;;;;;;;13.70;49.30;99357.41;4386713;32;33178;-76
2023/03/26 09:21:07;;;;;;;4.49;0.94;;;;;;;13.79;48.12;99362.88;4380762;32;33685;-76
2023/03/26 09:23:59;;;;;;;1.80;0.60;;;;;;;13.98;46.81;99374.59;4387366;32;33642;-76
2023/03/26 09:26:27;;;;;;;2.28;0.80;;;;;;;13.75;46.13;99361.00;4387989;32;33123;-77
2023/03/26 09:29:25;;;;;;;2.20;0.83;;;;;;;13.82;48.48;99357.72;4392073;32;34423;-76
2023/03/26 09:32:05;;;;;;;1.40;0.90;;;;;;;13.94;48.59;99363.22;4384630;32;31538;-76
2023/03/26 09:34:43;;;;;;;2.30;0.88;;;;;;;13.66;49.48;99352.97;4397937;32;32216;-76
2023/03/26 09:37:37;;;;;;;2.15;0.90;;;;;;;13.99;48.86;99349.44;4420774;32;32938;-76
2023/03/26 09:40:31;;;;;;;3.20;1.20;;;;;;;14.35;47.84;99345.06;4384289;32;33560;-77
2023/03/26 09:43:37;;;;;;;2.58;0.98;;;;;;;15.05;49.63;99344.81;4399913;32;33474;-76
2023/03/26 09:46:23;;;;;;;3.17;0.90;;;;;;;14.52;48.60;99337.59;4407771;32;32875;-78
2023/03/26 09:49:26;;;;;;;3.78;1.20;;;;;;;14.87;48.03;99341.81;4400363;32;33123;-76
2023/03/26 09:52:02;;;;;;;2.08;1.05;;;;;;;14.00;49.22;99336.44;4383699;32;33193;-77
2023/03/26 09:54:43;;;;;;;2.65;1.10;;;;;;;14.01;49.61;99332.13;4404813;32;33084;-79
2023/03/26 09:57:44;;;;;;;3.44;1.20;;;;;;;14.13;50.99;99317.66;4449895;32;32559;-76
2023/03/26 10:00:17;;;;;;;2.85;1.23;;;;;;;14.36;49.81;99310.34;4376903;32;31482;-78
2023/03/26 10:03:00;;;;;;;3.40;1.20;;;;;;;14.57;49.33;99303.88;4387269;32;33817;-79
2023/03/26 10:06:10;;;;;;;2.92;1.27;;;;;;;14.74;47.61;99291.19;4429001;32;31733;-80
2023/03/26 10:09:01;;;;;;;2.78;0.96;;;;;;;14.11;48.84;99297.63;4406444;32;33548;-77
2023/03/26 10:11:51;;;;;;;3.00;1.10;;;;;;;14.24;49.06;99291.84;4386205;32;32715;-77
2023/03/26 10:14:40;;;;;;;4.15;0.90;;;;;;;14.44;50.21;99302.69;4388893;32;32653;-82
2023/03/26 10:17:27;;;;;;;7.47;1.52;;;;;;;13.92;52.05;99312.81;4394538;32;33708;-82
2023/03/26 10:20:11;;;;;;;3.90;1.00;;;;;;;13.56;57.51;99323.25;4385333;32;32863;-76
2023/03/26 10:22:59;;;;;;;6.80;1.35;;;;;;;12.86;58.74;99332.59;4374374;32;32664;-80
2023/03/26 10:25:53;;;;;;;7.32;1.85;;;;;;;13.39;63.38;99328.03;4394099;32;32932;-80
2023/03/26 10:28:23;;;;;;;5.90;1.60;;;;;;;13.99;59.07;99297.38;4384193;32;32717;-78
2023/03/26 10:31:20;;;;;;;6.03;1.60;;;;;;;13.36;62.49;99294.97;4388461;32;32538;-80
2023/03/26 10:33:51;;;;;;;6.53;1.10;;;;;;;13.77;63.29;99297.75;4379778;32;32595;-81
2023/03/26 10:36:38;;;;;;;6.90;1.10;;;;;;;13.44;62.56;99291.69;4393214;32;33358;-82
2023/03/26 10:39:32;;;;;;;2.85;0.80;;;;;;;14.13;62.79;99280.31;4371283;32;33233;-80
2023/03/26 10:42:24;;;;;;;3.87;0.70;;;;;;;14.77;58.80;99269.50;4380021;32;32802;-81
2023/03/26 10:45:13;;;;;;;9.48;1.00;;;;;;;14.92;56.76;99269.78;4425981;32;33006;-79
2023/03/26 10:48:18;;;;;;;5.75;1.10;;;;;;;14.99;54.75;99249.91;4391108;32;32887;-78
2023/03/26 10:50:49;;;;;;;3.65;0.90;;;;;;;15.57;55.22;99255.22;4392093;32;33193;-77
2023/03/26 10:53:35;;;;;;;3.18;0.68;;;;;;;15.48;53.08;99255.97;4450532;32;32943;-77
2023/03/26 10:56:26;;;;;;;4.95;0.80;;;;;;;15.85;51.53;99252.22;4439293;32;32791;-77
2023/03/26 10:58:55;;;;;;;3.42;0.88;;;;;;;15.78;52.08;99247.78;4419992;32;32435;-78
2023/03/26 11:01:36;;;;;;;4.37;0.80;;;;;;;15.79;51.96;99236.47;4407566;32;33574;-78
2023/03/26 11:04:33;;;;;;;2.17;0.80;;;;;;;15.87;52.38;99237.47;4438633;32;32596;-80
2023/03/26 11:07:04;;;;;;;5.12;1.20;;;;;;;15.81;52.70;99239.97;4427902;32;33034;-79
2023/03/26 11:09:59;;;;;;;4.40;1.30;;;;;;;15.95;54.48;99234.09;4449263;32;33654;-78
2023/03/26 11:12:44;;;;;;;3.50;1.20;;;;;;;15.98;54.68;99226.31;4387340;32;34111;-79
2023/03/26 11:15:37;;;;;;;3.75;1.30;;;;;;;15.97;56.16;99219.31;4411027;32;30859;-78
2023/03/26 11:18:27;;;;;;;6.70;1.40;;;;;;;16.08;56.13;99202.03;4452464;32;33504;-78
2023/03/26 11:21:11;;;;;;;5.10;1.40;;;;;;;15.75;58.39;99203.34;4452427;32;32889;-78
2023/03/26 11:24:02;;;;;;;4.20;1.45;;;;;;;15.77;58.58;99208.59;4425587;32;32785;-80
2023/03/26 11:26:54;;;;;;;4.04;1.28;;;;;;;16.30;56.10;99192.72;4453054;32;33697;-79
2023/03/26 11:29:22;;;;;;;5.50;1.25;;;;;;;15.99;57.23;99197.56;4442751;32;32610;-80
2023/03/26 11:32:24;;;;;;;5.97;1.20;;;;;;;16.05;58.55;99186.31;4396068;32;32428;-78
2023/03/26 11:34:55;;;;;;;3.72;1.00;;;;;;;16.03;58.67;99188.03;4452946;32;33276;-77
2023/03/26 11:37:29;;;;;;;2.20;0.70;;;;;;;16.39;54.29;99164.09;4446111;32;33750;-78
2023/03/26 11:40:00;;;;;;;1.45;0.68;;;;;;;16.68;51.54;99163.53;4453027;32;33191;-79
2023/03/26 11:42:36;;;;;;;3.22;1.00;;;;;;;17.66;47.38;99159.09;4393088;32;34362;-80
2023/03/26 11:45:06;;;;;;;4.03;1.20;;;;;;;17.24;47.90;99152.69;4399317;32;33997;-78
2023/03/26 11:47:47;;;;;;;2.60;1.20;;;;;;;17.60;48.19;99143.34;4431650;32;32981;-78
2023/03/26 11:50:25;;;;;;;3.08;1.10;;;;;;;17.94;48.11;99133.06;4376694;32;33107;-79
2023/03/26 11:52:58;;;;;;;2.03;0.82;;;;;;;18.32;45.65;99123.59;4410847;32;34587;-77
2023/03/26 11:55:26;;;;;;;3.00;0.80;;;;;;;17.69;46.50;99121.56;4427223;32;33566;-78
2023/03/26 11:57:57;;;;;;;2.40;0.80;;;;;;;18.25;43.34;99113.09;4393275;32;32946;-78
2023/03/26 12:00:26;;;;;;;2.03;0.70;;;;;;;18.53;43.84;99102.66;4428541;32;34356;-77
2023/03/26 12:02:58;;;;;;;2.37;0.80;;;;;;;18.18;43.53;99097.34;4426806;32;34154;-77
2023/03/26 12:05:32;;;;;;;1.70;0.70;;;;;;;18.53;43.00;99094.78;4407284;32;34417;-78
2023/03/26 12:08:03;;;;;;;2.72;0.82;;;;;;;19.31;41.08;99087.78;4414872;32;31464;-79
2023/03/26 12:10:41;;;;;;;1.50;0.60;;;;;;;19.21;41.80;99097.44;4446845;32;32703;-77
2023/03/26 12:13:36;;;;;;;1.62;0.50;;;;;;;16.89;39.06;99087.03;4398464;32;33089;-78
2023/03/26 12:16:16;;;;;;;0.85;0.45;;;;;;;16.30;38.72;99073.41;4425843;32;32884;-79
2023/03/26 12:18:45;;;;;;;2.37;0.52;;;;;;;16.28;36.70;99069.91;4398221;32;32235;-77